createdAt,value
2022-09-03T00:00:05.881Z,100218.63
2022-09-03T00:02:43.765Z,100217.53
2022-09-03T00:05:23.289Z,100216.56
2022-09-03T00:08:03.904Z,100212.00
2022-09-03T00:10:44.964Z,100210.09
2022-09-03T00:13:18.732Z,100211.69
2022-09-03T00:15:49.068Z,100204.56
2022-09-03T00:18:22.077Z,100198.31
2022-09-03T00:20:57.510Z,100198.19
2022-09-03T00:23:29.528Z,100193.75
2022-09-03T00:26:05.763Z,100198.19
2022-09-03T00:28:42.472Z,100194.59
2022-09-03T00:31:19.394Z,100195.47
2022-09-03T00:33:51.853Z,100202.47
2022-09-03T00:36:27.072Z,100200.56
2022-09-03T00:38:55.464Z,100195.06
2022-09-03T00:41:33.632Z,100199.31
2022-09-03T00:44:39.871Z,100196.53
2022-09-03T00:47:18.727Z,100202.50
2022-09-03T00:50:03.013Z,100193.47
2022-09-03T00:52:46.317Z,100194.44
2022-09-03T00:55:27.553Z,100194.22
2022-09-03T00:58:21.472Z,100197.59
2022-09-03T01:00:52.865Z,100200.19
2022-09-03T01:03:34.440Z,100194.03
2022-09-03T01:06:18.842Z,100195.06
2022-09-03T01:09:10.284Z,100187.19
2022-09-03T01:11:51.413Z,100183.81
2022-09-03T01:14:45.884Z,100179.63
2022-09-03T01:17:29.952Z,100176.97
2022-09-03T01:20:28.590Z,100177.16
2022-09-03T01:23:28.665Z,100188.22
2022-09-03T01:26:16.921Z,100199.06
2022-09-03T01:29:02.583Z,100187.91
2022-09-03T01:31:40.181Z,100184.56
2022-09-03T01:34:25.479Z,100192.00
2022-09-03T01:37:01.079Z,100203.84
2022-09-03T01:39:42.790Z,100209.16
2022-09-03T01:42:22.134Z,100204.06
2022-09-03T01:45:31.489Z,100203.50
2022-09-03T01:48:18.100Z,100200.00
2022-09-03T01:50:54.900Z,100206.16
2022-09-03T01:53:39.009Z,100208.81
2022-09-03T01:56:26.911Z,100205.94
2022-09-03T01:59:03.901Z,100204.06
2022-09-03T02:01:39.133Z,100204.69
2022-09-03T02:04:20.472Z,100201.94
2022-09-03T02:06:49.943Z,100208.97
2022-09-03T02:09:18.879Z,100201.75
2022-09-03T02:11:54.317Z,100208.81
2022-09-03T02:14:23.056Z,100210.50
2022-09-03T02:16:52.772Z,100214.13
2022-09-03T02:19:21.337Z,100216.81
2022-09-03T02:21:54.545Z,100222.13
2022-09-03T02:24:23.709Z,100218.75
2022-09-03T02:26:52.088Z,100216.19
2022-09-03T02:29:20.728Z,100211.72
2022-09-03T02:31:49.244Z,100220.53
2022-09-03T02:34:18.999Z,100216.19
2022-09-03T02:36:48.916Z,100214.50
2022-09-03T02:39:18.154Z,100218.84
2022-09-03T02:41:58.391Z,100217.16
2022-09-03T02:44:31.830Z,100218.06
2022-09-03T02:47:02.900Z,100211.06
2022-09-03T02:49:33.264Z,100214.50
2022-09-03T02:52:05.871Z,100221.50
2022-09-03T02:54:36.863Z,100219.59
2022-09-03T02:57:05.475Z,100214.50
2022-09-03T02:59:34.319Z,100212.75
2022-09-03T03:02:03.371Z,100209.38
2022-09-03T03:04:34.391Z,100208.53
2022-09-03T03:07:02.965Z,100200.56
2022-09-03T03:09:31.325Z,100205.94
2022-09-03T03:11:59.639Z,100199.78
2022-09-03T03:14:28.383Z,100200.84
2022-09-03T03:16:57.251Z,100195.72
2022-09-03T03:19:25.548Z,100198.59
2022-09-03T03:21:55.531Z,100198.88
2022-09-03T03:24:24.092Z,100192.19
2022-09-03T03:26:52.656Z,100199.56
2022-09-03T03:29:21.340Z,100201.78
2022-09-03T03:31:49.622Z,100206.41
2022-09-03T03:34:17.913Z,100205.75
2022-09-03T03:36:46.200Z,100210.22
2022-09-03T03:39:15.952Z,100209.47
2022-09-03T03:41:44.264Z,100205.97
2022-09-03T03:44:12.847Z,100205.09
2022-09-03T03:46:42.503Z,100201.69
2022-09-03T03:49:11.087Z,100215.91
2022-09-03T03:51:40.761Z,100203.59
2022-09-03T03:54:09.430Z,100207.19
2022-09-03T03:56:39.029Z,100211.75
2022-09-03T03:59:07.321Z,100206.47
2022-09-03T04:01:35.999Z,100207.19
2022-09-03T04:04:05.620Z,100204.66
2022-09-03T04:06:33.923Z,100202.00
2022-09-03T04:09:02.393Z,100200.19
2022-09-03T04:11:30.655Z,100202.84
2022-09-03T04:14:00.302Z,100202.06
2022-09-03T04:16:29.620Z,100206.53
2022-09-03T04:18:58.500Z,100214.41
2022-09-03T04:21:29.195Z,100205.50
2022-09-03T04:23:58.869Z,100211.56
2022-09-03T04:26:31.449Z,100202.75
2022-09-03T04:29:03.068Z,100195.66
2022-09-03T04:31:32.644Z,100201.81
2022-09-03T04:34:01.183Z,100201.69
2022-09-03T04:36:31.927Z,100198.09
2022-09-03T04:39:02.671Z,100203.41
2022-09-03T04:41:32.548Z,100207.88
2022-09-03T04:44:02.224Z,100219.34
2022-09-03T04:46:33.512Z,100223.13
2022-09-03T04:49:02.918Z,100221.81
2022-09-03T04:51:31.783Z,100222.19
2022-09-03T04:54:02.877Z,100233.00
2022-09-03T04:56:34.177Z,100234.03
2022-09-03T04:59:06.811Z,100237.66
2022-09-03T05:01:38.383Z,100234.88
2022-09-03T05:04:08.184Z,100233.19
2022-09-03T05:06:38.321Z,100234.88
2022-09-03T05:09:07.677Z,100234.88
2022-09-03T05:11:36.240Z,100241.03
2022-09-03T05:14:07.148Z,100232.25
2022-09-03T05:16:35.538Z,100244.66
2022-09-03T05:19:06.335Z,100255.38
2022-09-03T05:21:36.611Z,100252.88
2022-09-03T05:24:06.247Z,100260.31
2022-09-03T05:26:38.766Z,100261.03
2022-09-03T05:29:09.356Z,100266.19
2022-09-03T05:31:40.009Z,100263.53
2022-09-03T05:34:10.056Z,100268.19
2022-09-03T05:36:39.935Z,100272.16
2022-09-03T05:39:08.655Z,100283.63
2022-09-03T05:41:37.784Z,100294.75
2022-09-03T05:44:06.393Z,100281.72
2022-09-03T05:46:37.766Z,100284.25
2022-09-03T05:49:08.591Z,100293.81
2022-09-03T05:51:39.489Z,100290.75
2022-09-03T05:54:09.227Z,100298.00
2022-09-03T05:56:41.081Z,100293.66
2022-09-03T05:59:11.784Z,100296.16
2022-09-03T06:01:51.606Z,100283.38
2022-09-03T06:04:21.397Z,100295.16
2022-09-03T06:06:49.983Z,100301.66
2022-09-03T06:09:20.570Z,100305.56
2022-09-03T06:11:50.462Z,100308.81
2022-09-03T06:14:22.029Z,100314.53
2022-09-03T06:16:52.979Z,100314.28
2022-09-03T06:19:22.063Z,100315.75
2022-09-03T06:21:50.577Z,100312.66
2022-09-03T06:24:24.686Z,100320.22
2022-09-03T06:26:56.476Z,100315.53
2022-09-03T06:29:24.875Z,100316.13
2022-09-03T06:31:56.002Z,100315.97
2022-09-03T06:34:27.220Z,100317.59
2022-09-03T06:36:55.667Z,100315.63
2022-09-03T06:39:24.709Z,100321.09
2022-09-03T06:41:53.498Z,100323.06
2022-09-03T06:44:28.606Z,100318.00
2022-09-03T06:47:01.363Z,100323.38
2022-09-03T06:49:31.395Z,100326.19
2022-09-03T06:51:59.990Z,100332.50
2022-09-03T06:54:28.392Z,100326.25
2022-09-03T06:56:56.692Z,100319.94
2022-09-03T06:59:24.968Z,100319.03
2022-09-03T07:01:53.588Z,100320.81
2022-09-03T07:04:25.075Z,100323.47
2022-09-03T07:06:53.506Z,100320.03
2022-09-03T07:09:21.763Z,100318.41
2022-09-03T07:11:50.098Z,100327.53
2022-09-03T07:14:20.248Z,100337.53
2022-09-03T07:16:49.947Z,100341.53
2022-09-03T07:19:18.479Z,100346.13
2022-09-03T07:21:50.819Z,100344.59
2022-09-03T07:24:22.012Z,100344.94
2022-09-03T07:26:52.128Z,100353.19
2022-09-03T07:29:21.652Z,100340.81
2022-09-03T07:31:53.159Z,100341.50
2022-09-03T07:34:27.101Z,100347.63
2022-09-03T07:36:57.869Z,100353.81
2022-09-03T07:39:26.935Z,100369.38
2022-09-03T07:41:58.311Z,100362.34
2022-09-03T07:44:28.545Z,100365.94
2022-09-03T07:46:58.771Z,100371.06
2022-09-03T07:49:27.371Z,100369.03
2022-09-03T07:51:57.102Z,100366.06
2022-09-03T07:54:27.312Z,100361.19
2022-09-03T07:56:56.814Z,100353.78
2022-09-03T07:59:26.114Z,100350.66
2022-09-03T08:01:54.616Z,100339.47
2022-09-03T08:04:23.050Z,100337.84
2022-09-03T08:06:55.381Z,100329.81
2022-09-03T08:09:25.175Z,100324.34
2022-09-03T08:11:53.487Z,100321.59
2022-09-03T08:14:22.180Z,100329.59
2022-09-03T08:16:50.773Z,100330.69
2022-09-03T08:19:20.040Z,100348.59
2022-09-03T08:21:48.840Z,100355.09
2022-09-03T08:24:20.883Z,100354.34
2022-09-03T08:26:52.575Z,100363.44
2022-09-03T08:29:22.183Z,100374.47
2022-09-03T08:31:50.884Z,100357.22
2022-09-03T08:34:21.356Z,100358.44
2022-09-03T08:36:50.486Z,100362.31
2022-09-03T08:39:19.058Z,100363.75
2022-09-03T08:42:25.536Z,100373.91
2022-09-03T08:44:58.170Z,100374.56
2022-09-03T08:47:31.197Z,100379.63
2022-09-03T08:50:04.471Z,100384.94
2022-09-03T08:52:38.668Z,100391.34
2022-09-03T08:55:21.489Z,100391.72
2022-09-03T08:57:56.612Z,100396.38
2022-09-03T09:00:24.972Z,100397.44
2022-09-03T09:03:30.875Z,100413.56
2022-09-03T09:06:08.258Z,100411.34
2022-09-03T09:08:49.401Z,100411.53
2022-09-03T09:11:38.832Z,100410.50
2022-09-03T09:14:19.719Z,100392.31
2022-09-03T09:17:00.893Z,100386.84
2022-09-03T09:19:46.748Z,100384.34
2022-09-03T09:22:25.267Z,100393.84
2022-09-03T09:24:57.357Z,100400.94
2022-09-03T09:27:26.367Z,100393.19
2022-09-03T09:30:01.766Z,100396.75
2022-09-03T09:32:31.973Z,100396.97
2022-09-03T09:35:00.543Z,100399.34
2022-09-03T09:37:29.047Z,100391.53
2022-09-03T09:40:00.518Z,100390.34
2022-09-03T09:42:30.985Z,100385.56
2022-09-03T09:45:11.850Z,100375.41
2022-09-03T09:47:41.624Z,100383.84
2022-09-03T09:50:25.068Z,100388.03
2022-09-03T09:53:06.851Z,100387.19
2022-09-03T09:55:35.873Z,100387.25
2022-09-03T09:58:13.994Z,100382.41
2022-09-03T10:00:59.807Z,100389.91
2022-09-03T10:03:31.311Z,100390.78
2022-09-03T10:06:23.247Z,100390.38
2022-09-03T10:08:51.644Z,100396.09
2022-09-03T10:11:23.636Z,100398.91
2022-09-03T10:13:53.593Z,100396.03
2022-09-03T10:16:28.539Z,100396.41
2022-09-03T10:19:07.795Z,100397.59
2022-09-03T10:21:46.729Z,100393.50
2022-09-03T10:24:44.929Z,100391.28
2022-09-03T10:27:23.640Z,100389.38
2022-09-03T10:29:53.407Z,100389.09
2022-09-03T10:32:41.856Z,100386.84
2022-09-03T10:35:26.955Z,100388.97
2022-09-03T10:38:07.960Z,100386.88
2022-09-03T10:40:41.983Z,100384.97
2022-09-03T10:43:37.920Z,100386.13
2022-09-03T10:46:20.591Z,100374.53
2022-09-03T10:49:23.433Z,100367.41
2022-09-03T10:52:00.257Z,100367.09
2022-09-03T10:54:50.695Z,100374.16
2022-09-03T10:57:33.076Z,100373.94
2022-09-03T11:00:10.147Z,100372.44
2022-09-03T11:03:12.728Z,100376.75
2022-09-03T11:05:50.133Z,100369.97
2022-09-03T11:08:25.581Z,100369.16
2022-09-03T11:10:58.262Z,100360.59
2022-09-03T11:13:31.085Z,100363.94
2022-09-03T11:16:05.038Z,100370.00
2022-09-03T11:18:42.203Z,100359.53
2022-09-03T11:21:17.574Z,100361.06
2022-09-03T11:23:55.296Z,100359.06
2022-09-03T11:26:27.776Z,100359.84
2022-09-03T11:29:03.160Z,100365.06
2022-09-03T11:31:48.039Z,100353.84
2022-09-03T11:34:32.329Z,100355.00
2022-09-03T11:37:21.541Z,100353.34
2022-09-03T11:40:00.307Z,100344.69
2022-09-03T11:42:37.219Z,100344.78
2022-09-03T11:45:23.606Z,100346.59
2022-09-03T11:47:53.766Z,100338.16
2022-09-03T11:50:26.130Z,100343.31
2022-09-03T11:53:08.514Z,100341.78
2022-09-03T11:55:55.228Z,100335.63
2022-09-03T11:58:29.776Z,100332.84
2022-09-03T12:00:59.607Z,100328.41
2022-09-03T12:03:36.679Z,100335.31
2022-09-03T12:06:40.022Z,100327.97
2022-09-03T12:09:40.045Z,100323.44
2022-09-03T12:12:29.904Z,100324.88
2022-09-03T12:15:07.692Z,100329.13
2022-09-03T12:17:45.485Z,100327.28
2022-09-03T12:20:17.214Z,100322.84
2022-09-03T12:22:45.691Z,100317.00
2022-09-03T12:25:17.398Z,100319.50
2022-09-03T12:27:49.343Z,100313.72
2022-09-03T12:30:23.147Z,100320.59
2022-09-03T12:32:52.519Z,100311.41
2022-09-03T12:38:18.549Z,100302.56
2022-09-03T12:43:37.611Z,100302.59
2022-09-03T12:46:14.591Z,100305.44
2022-09-03T12:51:52.350Z,100294.22
2022-09-03T12:54:23.055Z,100301.16
2022-09-03T12:56:58.744Z,100307.44
2022-09-03T12:59:32.481Z,100301.44
2022-09-03T13:02:06.610Z,100297.44
2022-09-03T13:04:38.137Z,100313.69
2022-09-03T13:07:13.940Z,100315.22
2022-09-03T13:09:43.284Z,100304.59
2022-09-03T13:12:30.165Z,100313.06
2022-09-03T13:15:06.600Z,100313.78
2022-09-03T13:18:07.244Z,100317.28
2022-09-03T13:20:43.685Z,100310.47
2022-09-03T13:23:37.175Z,100312.84
2022-09-03T13:26:20.890Z,100327.69
2022-09-03T13:29:14.434Z,100323.94
2022-09-03T13:31:47.839Z,100331.34
2022-09-03T13:34:24.005Z,100325.19
2022-09-03T13:36:59.705Z,100321.31
2022-09-03T13:39:32.977Z,100314.47
2022-09-03T13:42:11.976Z,100319.59
2022-09-03T13:44:50.125Z,100304.25
2022-09-03T13:47:33.376Z,100311.91
2022-09-03T13:50:26.704Z,100304.75
2022-09-03T13:53:04.053Z,100301.06
2022-09-03T13:55:38.451Z,100300.59
2022-09-03T13:58:13.059Z,100292.94
2022-09-03T14:00:50.308Z,100301.75
2022-09-03T14:03:33.334Z,100297.72
2022-09-03T14:06:15.007Z,100293.59
2022-09-03T14:08:59.064Z,100291.53
2022-09-03T14:11:35.805Z,100296.34
2022-09-03T14:14:18.132Z,100287.09
2022-09-03T14:16:55.259Z,100286.09
2022-09-03T14:19:37.131Z,100283.09
2022-09-03T14:22:12.219Z,100284.19
2022-09-03T14:24:51.229Z,100283.72
2022-09-03T14:27:28.417Z,100285.97
2022-09-03T14:30:02.184Z,100282.59
2022-09-03T14:32:44.150Z,100286.19
2022-09-03T14:35:31.192Z,100292.34
2022-09-03T14:39:16.819Z,100295.50
2022-09-03T14:41:58.607Z,100294.75
2022-09-03T14:44:51.936Z,100285.56
2022-09-03T14:47:39.832Z,100287.66
2022-09-03T14:50:23.548Z,100285.13
2022-09-03T14:53:28.439Z,100293.69
2022-09-03T14:56:34.072Z,100290.41
2022-09-03T14:59:21.664Z,100290.19
2022-09-03T15:02:08.287Z,100295.16
2022-09-03T15:04:57.001Z,100302.75
2022-09-03T15:07:37.491Z,100304.41
2022-09-03T15:10:20.220Z,100306.22
2022-09-03T15:12:53.171Z,100309.41
2022-09-03T15:15:27.988Z,100308.97
2022-09-03T15:18:06.185Z,100312.59
2022-09-03T15:20:51.418Z,100310.31
2022-09-03T15:23:41.111Z,100316.72
2022-09-03T15:26:44.423Z,100310.84
2022-09-03T15:29:31.091Z,100321.28
2022-09-03T15:32:09.236Z,100320.81
2022-09-03T15:35:00.934Z,100325.44
2022-09-03T15:37:39.840Z,100317.22
2022-09-03T15:40:21.830Z,100317.78
2022-09-03T15:42:56.845Z,100312.84
2022-09-03T15:45:37.709Z,100313.72
2022-09-03T15:48:27.641Z,100307.50
2022-09-03T15:51:10.063Z,100311.81
2022-09-03T15:53:51.253Z,100311.78
2022-09-03T15:56:29.333Z,100316.94
2022-09-03T15:59:04.705Z,100308.34
2022-09-03T16:01:51.068Z,100308.66
2022-09-03T16:04:34.959Z,100309.13
2022-09-03T16:07:17.377Z,100314.38
2022-09-03T16:10:23.820Z,100306.66
2022-09-03T16:13:04.568Z,100318.09
2022-09-03T16:15:41.441Z,100315.16
2022-09-03T16:18:21.480Z,100325.63
2022-09-03T16:21:00.019Z,100330.88
2022-09-03T16:23:37.159Z,100342.44
2022-09-03T16:26:12.236Z,100344.88
2022-09-03T16:28:49.011Z,100351.56
2022-09-03T16:31:29.697Z,100349.25
2022-09-03T16:34:05.137Z,100349.72
2022-09-03T16:36:45.852Z,100360.28
2022-09-03T16:39:26.792Z,100347.53
2022-09-03T16:42:05.197Z,100358.66
2022-09-03T16:44:50.587Z,100355.50
2022-09-03T16:47:32.028Z,100362.03
2022-09-03T16:50:14.940Z,100364.94
2022-09-03T16:52:56.895Z,100366.03
2022-09-03T16:55:32.692Z,100364.69
2022-09-03T16:58:23.181Z,100372.31
2022-09-03T17:01:10.788Z,100369.50
2022-09-03T17:04:05.664Z,100367.75
2022-09-03T17:06:57.494Z,100370.00
2022-09-03T17:09:46.757Z,100377.06
2022-09-03T17:12:26.457Z,100380.09
2022-09-03T17:15:23.125Z,100379.53
2022-09-03T17:18:17.787Z,100383.81
2022-09-03T17:20:56.697Z,100379.38
2022-09-03T17:23:47.760Z,100375.44
2022-09-03T17:26:29.930Z,100375.97
2022-09-03T17:29:13.054Z,100364.66
2022-09-03T17:31:52.203Z,100361.41
2022-09-03T17:34:39.044Z,100365.22
2022-09-03T17:37:19.903Z,100374.59
2022-09-03T17:40:26.844Z,100369.59
2022-09-03T17:43:06.096Z,100373.06
2022-09-03T17:45:47.568Z,100378.44
2022-09-03T17:48:45.566Z,100391.13
2022-09-03T17:51:28.223Z,100393.66
2022-09-03T17:54:06.280Z,100396.25
2022-09-03T17:56:47.119Z,100402.38
2022-09-03T17:59:26.029Z,100399.63
2022-09-03T18:02:05.916Z,100396.84
2022-09-03T18:04:51.132Z,100402.81
2022-09-03T18:07:29.017Z,100410.22
2022-09-03T18:10:09.353Z,100419.59
2022-09-03T18:13:04.049Z,100430.66
2022-09-03T18:15:39.347Z,100426.69
2022-09-03T18:18:25.846Z,100420.84
2022-09-03T18:21:24.289Z,100437.06
2022-09-03T18:24:19.747Z,100436.50
2022-09-03T18:27:13.999Z,100440.31
2022-09-03T18:30:06.691Z,100444.03
2022-09-03T18:32:52.969Z,100445.19
2022-09-03T18:35:39.038Z,100452.53
2022-09-03T18:38:26.124Z,100451.09
2022-09-03T18:41:22.853Z,100448.72
2022-09-03T18:44:21.039Z,100463.19
2022-09-03T18:48:01.830Z,100459.00
2022-09-03T18:50:31.297Z,100469.94
2022-09-03T18:53:29.005Z,100462.25
2022-09-03T18:56:32.634Z,100464.34
2022-09-03T18:59:36.040Z,100464.56
2022-09-03T19:02:32.885Z,100476.97
2022-09-03T19:05:33.549Z,100465.59
2022-09-03T19:08:30.847Z,100472.03
2022-09-03T19:11:27.737Z,100473.19
2022-09-03T19:14:21.162Z,100478.69
2022-09-03T19:17:20.161Z,100478.88
2022-09-03T19:20:23.737Z,100480.03
2022-09-03T19:23:09.472Z,100482.88
2022-09-03T19:25:55.535Z,100484.84
2022-09-03T19:28:44.824Z,100483.25
2022-09-03T19:31:59.843Z,100487.00
2022-09-03T19:35:24.151Z,100485.69
2022-09-03T19:38:25.322Z,100483.28
2022-09-03T19:41:24.650Z,100482.63
2022-09-03T19:44:37.427Z,100495.13
2022-09-03T19:47:26.324Z,100496.88
2022-09-03T19:50:22.124Z,100496.03
2022-09-03T19:53:13.380Z,100498.75
2022-09-03T19:56:07.592Z,100500.63
2022-09-03T19:58:58.931Z,100498.09
2022-09-03T20:01:52.892Z,100507.88
2022-09-03T20:04:51.160Z,100503.59
2022-09-03T20:07:38.772Z,100499.13
2022-09-03T20:10:23.253Z,100499.13
2022-09-03T20:13:02.593Z,100508.03
2022-09-03T20:15:43.875Z,100502.72
2022-09-03T20:18:27.075Z,100502.81
2022-09-03T20:21:11.240Z,100508.22
2022-09-03T20:23:48.076Z,100511.81
2022-09-03T20:26:37.414Z,100510.13
2022-09-03T20:29:46.400Z,100515.59
2022-09-03T20:32:41.531Z,100511.31
2022-09-03T20:35:20.300Z,100518.63
2022-09-03T20:37:58.742Z,100513.50
2022-09-03T20:40:38.847Z,100524.19
2022-09-03T20:43:42.881Z,100525.41
2022-09-03T20:46:39.353Z,100522.00
2022-09-03T20:49:23.759Z,100527.50
2022-09-03T20:52:06.399Z,100524.25
2022-09-03T20:54:39.181Z,100533.34
2022-09-03T20:57:37.337Z,100528.38
2022-09-03T21:00:12.485Z,100533.69
2022-09-03T21:03:16.933Z,100539.19
2022-09-03T21:06:10.351Z,100536.53
2022-09-03T21:09:06.754Z,100533.88
2022-09-03T21:11:44.743Z,100537.28
2022-09-03T21:14:33.559Z,100546.19
2022-09-03T21:17:21.060Z,100546.38
2022-09-03T21:20:04.401Z,100542.16
2022-09-03T21:22:44.739Z,100547.38
2022-09-03T21:25:21.372Z,100545.59
2022-09-03T21:27:56.057Z,100551.84
2022-09-03T21:30:24.735Z,100549.38
2022-09-03T21:33:00.455Z,100556.53
2022-09-03T21:35:33.838Z,100557.69
2022-09-03T21:38:07.731Z,100559.53
2022-09-03T21:40:46.800Z,100567.75
2022-09-03T21:43:20.335Z,100573.97
2022-09-03T21:46:00.995Z,100580.31
2022-09-03T21:48:36.157Z,100568.94
2022-09-03T21:51:12.087Z,100571.78
2022-09-03T21:53:47.336Z,100571.00
2022-09-03T21:56:54.876Z,100576.63
2022-09-03T21:59:48.012Z,100579.53
2022-09-03T22:02:25.239Z,100569.06
2022-09-03T22:04:55.350Z,100571.84
2022-09-03T22:07:53.386Z,100574.56
2022-09-03T22:10:32.429Z,100571.84
2022-09-03T22:13:16.099Z,100570.28
2022-09-03T22:15:50.589Z,100573.88
2022-09-03T22:18:28.857Z,100570.44
2022-09-03T22:21:23.260Z,100571.38
2022-09-03T22:24:10.256Z,100572.50
2022-09-03T22:26:46.379Z,100577.97
2022-09-03T22:29:28.539Z,100565.78
2022-09-03T22:32:05.870Z,100574.88
2022-09-03T22:35:06.681Z,100576.91
2022-09-03T22:37:54.768Z,100582.38
2022-09-03T22:40:29.615Z,100584.09
2022-09-03T22:43:12.635Z,100582.53
2022-09-03T22:46:03.071Z,100585.13
2022-09-03T22:49:11.626Z,100585.19
2022-09-03T22:51:56.955Z,100578.19
2022-09-03T22:54:36.979Z,100582.69
2022-09-03T22:57:07.761Z,100582.69
2022-09-03T22:59:42.509Z,100585.34
2022-09-03T23:02:16.650Z,100582.84
2022-09-03T23:04:51.887Z,100592.50
2022-09-03T23:07:28.202Z,100596.03
2022-09-03T23:10:03.421Z,100596.03
2022-09-03T23:12:40.164Z,100595.16
2022-09-03T23:15:14.078Z,100605.75
2022-09-03T23:17:51.037Z,100601.41
2022-09-03T23:20:23.479Z,100605.00
2022-09-03T23:22:59.774Z,100604.22
2022-09-03T23:25:35.979Z,100613.97
2022-09-03T23:28:12.342Z,100615.78
2022-09-03T23:30:41.666Z,100620.13
2022-09-03T23:33:11.311Z,100618.41
2022-09-03T23:35:49.226Z,100618.59
2022-09-03T23:38:29.448Z,100611.69
2022-09-03T23:41:03.237Z,100608.31
2022-09-03T23:44:07.592Z,100614.66
2022-09-03T23:46:45.095Z,100605.81
2022-09-03T23:49:35.075Z,100615.69
2022-09-03T23:52:39.108Z,100614.06
2022-09-03T23:55:19.308Z,100610.47
2022-09-03T23:58:00.894Z,100615.78
